NCAR-RAP Real-Time Weather Data

Output produced by METARs form (30 April 2017  15:06 UTC)
found at http://weather.rap.ucar.edu/surface/
 
Conditions at: KTTS observed 30 April 2017  14:58 UTC
Temperature: 27.8°C (82°F)
Dewpoint: 20.6°C (69°F) [RH = 65%]
Pressure (altimeter): 30.13 inches Hg (1020.4 mb)
[Sea-level pressure: 1020.7 mb]
Winds: from the S (170 degrees) at 17 MPH (15 knots; 7.8 m/s)
gusting to 23 MPH (20 knots; 10.4 m/s)
Visibility: 10 or more miles (16+ km)
Ceiling: at least 12,000 feet AGL
Clouds: scattered clouds at 2800 feet AGL
Present Weather:
SOME DATA ABOVE MAY BE INACCURATE!!!
"$" is an indication the sensor requires maintenance
KTTS 301458Z AUTO 17015G20KT 10SM SCT028 28/21 A3013 RMK AO2 SLP207 T02780206 55002 $

Conditions at: KTTS observed 30 April 2017  13:58 UTC
Temperature: 27.4°C (81°F)
Dewpoint: 20.7°C (69°F) [RH = 67%]
Pressure (altimeter): 30.12 inches Hg (1020.1 mb)
[Sea-level pressure: 1020.4 mb]
Winds: from the SSE (160 degrees) at 16 MPH (14 knots; 7.3 m/s)
gusting to 28 MPH (24 knots; 12.5 m/s)
Visibility: 10 or more miles (16+ km)
Ceiling: at least 12,000 feet AGL
Clouds: few clouds at 2700 feet AGL
Present Weather:
SOME DATA ABOVE MAY BE INACCURATE!!!
"$" is an indication the sensor requires maintenance
KTTS 301358Z AUTO 16014G24KT 10SM FEW027 27/21 A3012 RMK AO2 PK WND 15026/38 SLP204 T02740207 $

Conditions at: KTTS observed 30 April 2017  12:58 UTC
Temperature: 26.1°C (79°F)
Dewpoint: 21.4°C (71°F) [RH = 75%]
Pressure (altimeter): 30.14 inches Hg (1020.7 mb)
[Sea-level pressure: 1021.1 mb]
Winds: from the SSE (150 degrees) at 12 MPH (10 knots; 5.2 m/s)
Visibility: 10 or more miles (16+ km)
Ceiling: at least 12,000 feet AGL
Clouds: few clouds at 2100 feet AGL
Present Weather:
SOME DATA ABOVE MAY BE INACCURATE!!!
"$" is an indication the sensor requires maintenance
KTTS 301258Z AUTO 15010KT 10SM FEW021 26/21 A3014 RMK AO2 SLP211 T02610214 $

Conditions at: KTTS observed 30 April 2017  12:13 UTC
Temperature: 25.0°C (77°F)
Dewpoint: 21.0°C (70°F) [RH = 79%]
Pressure (altimeter): 30.14 inches Hg (1020.7 mb)
[Sea-level pressure: 1021.1 mb]
Winds: from the SSE (150 degrees) at 10 MPH (9 knots; 4.7 m/s)
gusting to 16 MPH (14 knots; 7.3 m/s)
Visibility: 10 or more miles (16+ km)
Ceiling: at least 12,000 feet AGL
Clouds: scattered clouds at 1900 feet AGL
Present Weather:
SOME DATA ABOVE MAY BE INACCURATE!!!
"$" is an indication the sensor requires maintenance
KTTS 301213Z AUTO 15009G14KT 10SM SCT019 25/21 A3014 RMK AO2 SLP211 $

Conditions at: KTTS observed 30 April 2017  12:08 UTC
Temperature: 25.0°C (77°F)
Dewpoint: 22.0°C (72°F) [RH = 83%]
Pressure (altimeter): 30.14 inches Hg (1020.7 mb)
[Sea-level pressure: 1021.1 mb]
Winds: from the SSE (150 degrees) at 12 MPH (10 knots; 5.2 m/s)
gusting to 16 MPH (14 knots; 7.3 m/s)
Visibility: 10 or more miles (16+ km)
Ceiling: 2000 feet AGL
Clouds: broken clouds at 2000 feet AGL
Present Weather:
SOME DATA ABOVE MAY BE INACCURATE!!!
"$" is an indication the sensor requires maintenance
KTTS 301208Z AUTO 15010G14KT 10SM BKN020 25/22 A3014 RMK AO2 CIG 020V044 BKN V SCT SLP211 $

Conditions at: KTTS observed 30 April 2017  11:58 UTC
Temperature: 24.9°C (77°F)
Dewpoint: 21.4°C (71°F) [RH = 81%]
Pressure (altimeter): 30.14 inches Hg (1020.7 mb)
[Sea-level pressure: 1021.1 mb]
Winds: from the SSE (150 degrees) at 8 MPH (7 knots; 3.6 m/s)
Visibility: 10 or more miles (16+ km)
Ceiling: at least 12,000 feet AGL
Clouds: few clouds at 2100 feet AGL
scattered clouds at 4400 feet AGL
Present Weather:
SOME DATA ABOVE MAY BE INACCURATE!!!
"$" is an indication the sensor requires maintenance
KTTS 301158Z AUTO 15007KT 10SM FEW021 SCT044 25/21 A3014 RMK AO2 SLP211 T02490214 10249 20242 52012 $

Conditions at: KTTS observed 30 April 2017  10:58 UTC
Temperature: 24.5°C (76°F)
Dewpoint: 21.6°C (71°F) [RH = 84%]
Pressure (altimeter): 30.13 inches Hg (1020.4 mb)
[Sea-level pressure: 1020.7 mb]
Winds: from the SSE (150 degrees) at 7 MPH (6 knots; 3.1 m/s)
Visibility: 10 or more miles (16+ km)
Ceiling: at least 12,000 feet AGL
Clouds: few clouds at 2000 feet AGL
Present Weather:
SOME DATA ABOVE MAY BE INACCURATE!!!
"$" is an indication the sensor requires maintenance
KTTS 301058Z AUTO 15006KT 10SM FEW020 25/22 A3013 RMK AO2 SLP207 T02450216 $

Conditions at: KTTS observed 30 April 2017  09:58 UTC
Temperature: 24.2°C (76°F)
Dewpoint: 21.2°C (70°F) [RH = 83%]
Pressure (altimeter): 30.11 inches Hg (1019.7 mb)
[Sea-level pressure: 1020.0 mb]
Winds: from the SSE (150 degrees) at 10 MPH (9 knots; 4.7 m/s)
Visibility: 10 or more miles (16+ km)
Ceiling: at least 12,000 feet AGL
Clouds: few clouds at 2200 feet AGL
Present Weather:
SOME DATA ABOVE MAY BE INACCURATE!!!
"$" is an indication the sensor requires maintenance
KTTS 300958Z AUTO 15009KT 10SM FEW022 24/21 A3011 RMK AO2 SLP200 T02420212 $

Conditions at: KTTS observed 30 April 2017  08:58 UTC
Temperature: 24.4°C (76°F)
Dewpoint: 21.4°C (71°F) [RH = 83%]
Pressure (altimeter): 30.10 inches Hg (1019.4 mb)
[Sea-level pressure: 1019.7 mb]
Winds: from the SSE (150 degrees) at 8 MPH (7 knots; 3.6 m/s)
Visibility: 10 or more miles (16+ km)
Ceiling: at least 12,000 feet AGL
Clouds: sky clear below 12,000 feet AGL
Present Weather:
SOME DATA ABOVE MAY BE INACCURATE!!!
"$" is an indication the sensor requires maintenance
KTTS 300858Z AUTO 15007KT 10SM CLR 24/21 A3010 RMK AO2 SLP197 T02440214 55003 $

Conditions at: KTTS observed 30 April 2017  07:58 UTC
Temperature: 24.5°C (76°F)
Dewpoint: 21.2°C (70°F) [RH = 82%]
Pressure (altimeter): 30.10 inches Hg (1019.4 mb)
[Sea-level pressure: 1019.7 mb]
Winds: from the SE (140 degrees) at 8 MPH (7 knots; 3.6 m/s)
Visibility: 10 or more miles (16+ km)
Ceiling: at least 12,000 feet AGL
Clouds: sky clear below 12,000 feet AGL
Present Weather:
SOME DATA ABOVE MAY BE INACCURATE!!!
"$" is an indication the sensor requires maintenance
KTTS 300758Z AUTO 14007KT 10SM CLR 25/21 A3010 RMK AO2 SLP197 T02450212 $

Conditions at: KTTS observed 30 April 2017  06:58 UTC
Temperature: 24.7°C (76°F)
Dewpoint: 21.7°C (71°F) [RH = 83%]
Pressure (altimeter): 30.11 inches Hg (1019.7 mb)
[Sea-level pressure: 1020.0 mb]
Winds: from the SSE (150 degrees) at 13 MPH (11 knots; 5.7 m/s)
Visibility: 10 or more miles (16+ km)
Ceiling: at least 12,000 feet AGL
Clouds: few clouds at 1800 feet AGL
Present Weather:
SOME DATA ABOVE MAY BE INACCURATE!!!
"$" is an indication the sensor requires maintenance
KTTS 300658Z AUTO 15011KT 10SM FEW018 25/22 A3011 RMK AO2 SLP200 T02470217 $

Conditions at: KTTS observed 30 April 2017  06:23 UTC
Temperature: 25.0°C (77°F)
Dewpoint: 22.0°C (72°F) [RH = 83%]
Pressure (altimeter): 30.11 inches Hg (1019.7 mb)
[Sea-level pressure: 1020.0 mb]
Winds: from the SSE (150 degrees) at 13 MPH (11 knots; 5.7 m/s)
Visibility: 10 or more miles (16+ km)
Ceiling: at least 12,000 feet AGL
Clouds: scattered clouds at 1700 feet AGL
Present Weather:
SOME DATA ABOVE MAY BE INACCURATE!!!
"$" is an indication the sensor requires maintenance
KTTS 300623Z AUTO 15011KT 10SM SCT017 25/22 A3011 RMK AO2 SLP200 $

Conditions at: KTTS observed 30 April 2017  05:58 UTC
Temperature: 25.0°C (77°F)
Dewpoint: 22.0°C (72°F) [RH = 83%]
Pressure (altimeter): 30.11 inches Hg (1019.7 mb)
[Sea-level pressure: 1020.0 mb]
Winds: from the SSE (150 degrees) at 13 MPH (11 knots; 5.7 m/s)
gusting to 21 MPH (18 knots; 9.4 m/s)
Visibility: 10 or more miles (16+ km)
Ceiling: 2300 feet AGL
Clouds: scattered clouds at 1700 feet AGL
broken clouds at 2300 feet AGL
Present Weather:
SOME DATA ABOVE MAY BE INACCURATE!!!
"$" is an indication the sensor requires maintenance
KTTS 300558Z AUTO 15011G18KT 10SM SCT017 BKN023 25/22 A3011 RMK AO2 DZB05E09 CIG 017V023 CIG 016 RWY15 SLP200 P0000 60000 58007 $

Conditions at: KTTS observed 30 April 2017  05:33 UTC
Temperature: 25.0°C (77°F)
Dewpoint: 22.0°C (72°F) [RH = 83%]
Pressure (altimeter): 30.12 inches Hg (1020.1 mb)
[Sea-level pressure: 1020.4 mb]
Winds: from the SE (140 degrees) at 12 MPH (10 knots; 5.2 m/s)
gusting to 17 MPH (15 knots; 7.8 m/s)
Visibility: 10 or more miles (16+ km)
Ceiling: 1600 feet AGL
Clouds: broken clouds at 1600 feet AGL
broken clouds at 2500 feet AGL
Present Weather:
SOME DATA ABOVE MAY BE INACCURATE!!!
"$" is an indication the sensor requires maintenance
KTTS 300533Z AUTO 14010G15KT 10SM BKN016 BKN025 25/22 A3012 RMK AO2 DZB05E09 BKN016 V SCT SLP204 $

Conditions at: KTTS observed 30 April 2017  04:58 UTC
Temperature: 24.8°C (77°F)
Dewpoint: 21.6°C (71°F) [RH = 82%]
Pressure (altimeter): 30.13 inches Hg (1020.4 mb)
[Sea-level pressure: 1020.7 mb]
Winds: from the SE (140 degrees) at 12 MPH (10 knots; 5.2 m/s)
Visibility: 10 or more miles (16+ km)
Ceiling: at least 12,000 feet AGL
Clouds: sky clear below 12,000 feet AGL
Present Weather:
SOME DATA ABOVE MAY BE INACCURATE!!!
"$" is an indication the sensor requires maintenance
KTTS 300458Z AUTO 14010KT 10SM CLR 25/22 A3013 RMK AO2 SLP207 T02480216 402910239 $

Conditions at: KTTS observed 30 April 2017  04:38 UTC
Temperature: 25.0°C (77°F)
Dewpoint: 22.0°C (72°F) [RH = 83%]
Pressure (altimeter): 30.14 inches Hg (1020.7 mb)
[Sea-level pressure: 1021.1 mb]
Winds: from the SE (140 degrees) at 12 MPH (10 knots; 5.2 m/s)
gusting to 18 MPH (16 knots; 8.3 m/s)
Visibility: 10 or more miles (16+ km)
Ceiling: at least 12,000 feet AGL
Clouds: scattered clouds at 1700 feet AGL
Present Weather:
SOME DATA ABOVE MAY BE INACCURATE!!!
"$" is an indication the sensor requires maintenance
KTTS 300438Z AUTO 14010G16KT 10SM SCT017 25/22 A3014 RMK AO2 SLP211 $

Conditions at: KTTS observed 30 April 2017  04:28 UTC
Temperature: 25.0°C (77°F)
Dewpoint: 22.0°C (72°F) [RH = 83%]
Pressure (altimeter): 30.14 inches Hg (1020.7 mb)
[Sea-level pressure: 1021.1 mb]
Winds: from the SSE (150 degrees) at 10 MPH (9 knots; 4.7 m/s)
gusting to 18 MPH (16 knots; 8.3 m/s)
Visibility: 10 or more miles (16+ km)
Ceiling: 1700 feet AGL
Clouds: broken clouds at 1700 feet AGL
broken clouds at 2400 feet AGL
Present Weather:
SOME DATA ABOVE MAY BE INACCURATE!!!
"$" is an indication the sensor requires maintenance
KTTS 300428Z AUTO 15009G16KT 10SM BKN017 BKN024 25/22 A3014 RMK AO2 BKN017 V SCT SLP211 $

Conditions at: KTTS observed 30 April 2017  04:18 UTC
Temperature: 25.0°C (77°F)
Dewpoint: 22.0°C (72°F) [RH = 83%]
Pressure (altimeter): 30.14 inches Hg (1020.7 mb)
[Sea-level pressure: 1021.1 mb]
Winds: from the SE (140 degrees) at 12 MPH (10 knots; 5.2 m/s)
Visibility: 10 or more miles (16+ km)
Ceiling: at least 12,000 feet AGL
Clouds: scattered clouds at 1700 feet AGL
Present Weather:
SOME DATA ABOVE MAY BE INACCURATE!!!
"$" is an indication the sensor requires maintenance
KTTS 300418Z AUTO 14010KT 10SM SCT017 25/22 A3014 RMK AO2 SLP211 $

Conditions at: KTTS observed 30 April 2017  03:58 UTC
Temperature: 24.9°C (77°F)
Dewpoint: 21.9°C (71°F) [RH = 83%]
Pressure (altimeter): 30.14 inches Hg (1020.7 mb)
[Sea-level pressure: 1021.1 mb]
Winds: from the SE (140 degrees) at 10 MPH (9 knots; 4.7 m/s)
Visibility: 10 or more miles (16+ km)
Ceiling: 2300 feet AGL
Clouds: scattered clouds at 1700 feet AGL
broken clouds at 2300 feet AGL
Present Weather:
SOME DATA ABOVE MAY BE INACCURATE!!!
"$" is an indication the sensor requires maintenance
KTTS 300358Z AUTO 14009KT 10SM SCT017 BKN023 25/22 A3014 RMK AO2 BKN V SCT SLP211 T02490219 $

Conditions at: KTTS observed 30 April 2017  03:53 UTC
Temperature: 25.0°C (77°F)
Dewpoint: 22.0°C (72°F) [RH = 83%]
Pressure (altimeter): 30.14 inches Hg (1020.7 mb)
[Sea-level pressure: 1021.1 mb]
Winds: from the SE (140 degrees) at 9 MPH (8 knots; 4.2 m/s)
gusting to 20 MPH (17 knots; 8.8 m/s)
Visibility: 10 or more miles (16+ km)
Ceiling: 2300 feet AGL
Clouds: scattered clouds at 1700 feet AGL
broken clouds at 2300 feet AGL
Present Weather:
SOME DATA ABOVE MAY BE INACCURATE!!!
"$" is an indication the sensor requires maintenance
KTTS 300353Z AUTO 14008G17KT 10SM SCT017 BKN023 25/22 A3014 RMK AO2 BKN V SCT SLP211 $

Conditions at: KTTS observed 30 April 2017  03:43 UTC
Temperature: 25.0°C (77°F)
Dewpoint: 22.0°C (72°F) [RH = 83%]
Pressure (altimeter): 30.14 inches Hg (1020.7 mb)
[Sea-level pressure: 1021.1 mb]
Winds: from the SE (130 degrees) at 10 MPH (9 knots; 4.7 m/s)
gusting to 18 MPH (16 knots; 8.3 m/s)
Visibility: 10 or more miles (16+ km)
Ceiling: at least 12,000 feet AGL
Clouds: scattered clouds at 1700 feet AGL
scattered clouds at 2300 feet AGL
Present Weather:
SOME DATA ABOVE MAY BE INACCURATE!!!
"$" is an indication the sensor requires maintenance
KTTS 300343Z AUTO 13009G16KT 10SM SCT017 SCT023 25/22 A3014 RMK AO2 SLP211 $

Conditions at: KTTS observed 30 April 2017  03:33 UTC
Temperature: 25.0°C (77°F)
Dewpoint: 22.0°C (72°F) [RH = 83%]
Pressure (altimeter): 30.14 inches Hg (1020.7 mb)
[Sea-level pressure: 1021.1 mb]
Winds: from the SE (140 degrees) at 9 MPH (8 knots; 4.2 m/s)
gusting to 20 MPH (17 knots; 8.8 m/s)
Visibility: 10 or more miles (16+ km)
Ceiling: 1700 feet AGL
Clouds: broken clouds at 1700 feet AGL
broken clouds at 2300 feet AGL
Present Weather:
SOME DATA ABOVE MAY BE INACCURATE!!!
"$" is an indication the sensor requires maintenance
KTTS 300333Z AUTO 14008G17KT 10SM BKN017 BKN023 25/22 A3014 RMK AO2 CIG 017V023 BKN017 V SCT SLP211 $

Conditions at: KTTS observed 30 April 2017  03:28 UTC
Temperature: 25.0°C (77°F)
Dewpoint: 22.0°C (72°F) [RH = 83%]
Pressure (altimeter): 30.14 inches Hg (1020.7 mb)
[Sea-level pressure: 1021.1 mb]
Winds: from the SE (140 degrees) at 12 MPH (10 knots; 5.2 m/s)
Visibility: 10 or more miles (16+ km)
Ceiling: at least 12,000 feet AGL
Clouds: scattered clouds at 1700 feet AGL
Present Weather:
SOME DATA ABOVE MAY BE INACCURATE!!!
"$" is an indication the sensor requires maintenance
KTTS 300328Z AUTO 14010KT 10SM SCT017 25/22 A3014 RMK AO2 SLP211 $

Conditions at: KTTS observed 30 April 2017  02:58 UTC
Temperature: 24.8°C (77°F)
Dewpoint: 22.0°C (72°F) [RH = 84%]
Pressure (altimeter): 30.14 inches Hg (1020.7 mb)
[Sea-level pressure: 1021.1 mb]
Winds: from the SE (140 degrees) at 9 MPH (8 knots; 4.2 m/s)
Visibility: 10 or more miles (16+ km)
Ceiling: 1700 feet AGL
Clouds: broken clouds at 1700 feet AGL
broken clouds at 2300 feet AGL
Present Weather:
SOME DATA ABOVE MAY BE INACCURATE!!!
"$" is an indication the sensor requires maintenance
KTTS 300258Z AUTO 14008KT 10SM BKN017 BKN023 25/22 A3014 RMK AO2 BKN017 V SCT SLP211 T02480220 50003 $

Conditions at: KTTS observed 30 April 2017  02:53 UTC
Temperature: 25.0°C (77°F)
Dewpoint: 22.0°C (72°F) [RH = 83%]
Pressure (altimeter): 30.14 inches Hg (1020.7 mb)
[Sea-level pressure: 1021.1 mb]
Winds: from the SE (130 degrees) at 9 MPH (8 knots; 4.2 m/s)
Visibility: 10 or more miles (16+ km)
Ceiling: 1800 feet AGL
Clouds: broken clouds at 1800 feet AGL
Present Weather:
SOME DATA ABOVE MAY BE INACCURATE!!!
"$" is an indication the sensor requires maintenance
KTTS 300253Z AUTO 13008KT 10SM BKN018 25/22 A3014 RMK AO2 SLP211 $

Conditions at: KTTS observed 30 April 2017  01:58 UTC
Temperature: 24.7°C (76°F)
Dewpoint: 21.7°C (71°F) [RH = 83%]
Pressure (altimeter): 30.14 inches Hg (1020.7 mb)
[Sea-level pressure: 1021.1 mb]
Winds: from the SE (130 degrees) at 8 MPH (7 knots; 3.6 m/s)
Visibility: 10 or more miles (16+ km)
Ceiling: at least 12,000 feet AGL
Clouds: sky clear below 12,000 feet AGL
Present Weather:
SOME DATA ABOVE MAY BE INACCURATE!!!
"$" is an indication the sensor requires maintenance
KTTS 300158Z AUTO 13007KT 10SM CLR 25/22 A3014 RMK AO2 SLP211 T02470217 $

Conditions at: KTTS observed 30 April 2017  00:58 UTC
Temperature: 24.9°C (77°F)
Dewpoint: 21.7°C (71°F) [RH = 82%]
Pressure (altimeter): 30.13 inches Hg (1020.4 mb)
[Sea-level pressure: 1020.7 mb]
Winds: from the SE (130 degrees) at 10 MPH (9 knots; 4.7 m/s)
Visibility: 10 or more miles (16+ km)
Ceiling: at least 12,000 feet AGL
Clouds: few clouds at 1800 feet AGL
Present Weather:
SOME DATA ABOVE MAY BE INACCURATE!!!
"$" is an indication the sensor requires maintenance
KTTS 300058Z AUTO 13009KT 10SM FEW018 25/22 A3013 RMK AO2 SLP207 T02490217 $

Conditions at: KTTS observed 29 April 2017  23:58 UTC
Temperature: 25.3°C (78°F)
Dewpoint: 21.2°C (70°F) [RH = 78%]
Pressure (altimeter): 30.13 inches Hg (1020.4 mb)
[Sea-level pressure: 1020.7 mb]
Winds: from the SE (130 degrees) at 9 MPH (8 knots; 4.2 m/s)
Visibility: 10 or more miles (16+ km)
Ceiling: at least 12,000 feet AGL
Clouds: scattered clouds at 2000 feet AGL
Present Weather:
SOME DATA ABOVE MAY BE INACCURATE!!!
"$" is an indication the sensor requires maintenance
KTTS 292358Z AUTO 13008KT 10SM SCT020 25/21 A3013 RMK AO2 SLP207 T02530212 10291 20253 56000 $

Conditions at: KTTS observed 29 April 2017  23:48 UTC
Temperature: 25.0°C (77°F)
Dewpoint: 21.0°C (70°F) [RH = 79%]
Pressure (altimeter): 30.13 inches Hg (1020.4 mb)
[Sea-level pressure: 1020.7 mb]
Winds: from the ESE (120 degrees) at 12 MPH (10 knots; 5.2 m/s)
Visibility: 10 or more miles (16+ km)
Ceiling: at least 12,000 feet AGL
Clouds: scattered clouds at 2000 feet AGL
Present Weather:
SOME DATA ABOVE MAY BE INACCURATE!!!
"$" is an indication the sensor requires maintenance
KTTS 292348Z AUTO 12010KT 10SM SCT020 25/21 A3013 RMK AO2 SLP207 $

Conditions at: KTTS observed 29 April 2017  23:43 UTC
Temperature: 25.0°C (77°F)
Dewpoint: 21.0°C (70°F) [RH = 79%]
Pressure (altimeter): 30.12 inches Hg (1020.1 mb)
[Sea-level pressure: 1020.4 mb]
Winds: from the ESE (120 degrees) at 8 MPH (7 knots; 3.6 m/s)
Visibility: 10 or more miles (16+ km)
Ceiling: 2700 feet AGL
Clouds: scattered clouds at 2000 feet AGL
broken clouds at 2700 feet AGL
Present Weather:
SOME DATA ABOVE MAY BE INACCURATE!!!
"$" is an indication the sensor requires maintenance
KTTS 292343Z AUTO 12007KT 10SM SCT020 BKN027 25/21 A3012 RMK AO2 BKN V SCT SLP204 $

Conditions at: KTTS observed 29 April 2017  23:38 UTC
Temperature: 26.0°C (79°F)
Dewpoint: 21.0°C (70°F) [RH = 74%]
Pressure (altimeter): 30.12 inches Hg (1020.1 mb)
[Sea-level pressure: 1020.4 mb]
Winds: from the SE (130 degrees) at 9 MPH (8 knots; 4.2 m/s)
Visibility: 10 or more miles (16+ km)
Ceiling: 2800 feet AGL
Clouds: scattered clouds at 2100 feet AGL
broken clouds at 2800 feet AGL
Present Weather:
SOME DATA ABOVE MAY BE INACCURATE!!!
"$" is an indication the sensor requires maintenance
KTTS 292338Z AUTO 13008KT 10SM SCT021 BKN028 26/21 A3012 RMK AO2 BKN V SCT CIG 022 RWY15 SLP204 $

Conditions at: KTTS observed 29 April 2017  23:33 UTC
Temperature: 26.0°C (79°F)
Dewpoint: 21.0°C (70°F) [RH = 74%]
Pressure (altimeter): 30.12 inches Hg (1020.1 mb)
[Sea-level pressure: 1020.4 mb]
Winds: from the SE (140 degrees) at 10 MPH (9 knots; 4.7 m/s)
Visibility: 10 or more miles (16+ km)
Ceiling: at least 12,000 feet AGL
Clouds: scattered clouds at 2100 feet AGL
scattered clouds at 2800 feet AGL
Present Weather:
SOME DATA ABOVE MAY BE INACCURATE!!!
"$" is an indication the sensor requires maintenance
KTTS 292333Z AUTO 14009KT 10SM SCT021 SCT028 26/21 A3012 RMK AO2 SLP204 $

Conditions at: KTTS observed 29 April 2017  23:18 UTC
Temperature: 26.0°C (79°F)
Dewpoint: 21.0°C (70°F) [RH = 74%]
Pressure (altimeter): 30.12 inches Hg (1020.1 mb)
[Sea-level pressure: 1020.4 mb]
Winds: from the SE (130 degrees) at 10 MPH (9 knots; 4.7 m/s)
Visibility: 10 or more miles (16+ km)
Ceiling: 2400 feet AGL
Clouds: broken clouds at 2400 feet AGL
Present Weather:
SOME DATA ABOVE MAY BE INACCURATE!!!
"$" is an indication the sensor requires maintenance
KTTS 292318Z AUTO 13009KT 10SM BKN024 26/21 A3012 RMK AO2 CIG 024V030 BKN V SCT SLP204 $

Conditions at: KTTS observed 29 April 2017  22:58 UTC
Temperature: 26.3°C (79°F)
Dewpoint: 21.2°C (70°F) [RH = 74%]
Pressure (altimeter): 30.13 inches Hg (1020.4 mb)
[Sea-level pressure: 1020.7 mb]
Winds: from the ESE (120 degrees) at 10 MPH (9 knots; 4.7 m/s)
Visibility: 10 or more miles (16+ km)
Ceiling: at least 12,000 feet AGL
Clouds: few clouds at 2400 feet AGL
scattered clouds at 3200 feet AGL
Present Weather:
SOME DATA ABOVE MAY BE INACCURATE!!!
"$" is an indication the sensor requires maintenance
KTTS 292258Z AUTO 12009KT 10SM FEW024 SCT032 26/21 A3013 RMK AO2 SLP207 T02630212 $

Conditions at: KTTS observed 29 April 2017  21:58 UTC
Temperature: 27.3°C (81°F)
Dewpoint: 21.5°C (71°F) [RH = 71%]
Pressure (altimeter): 30.13 inches Hg (1020.4 mb)
[Sea-level pressure: 1020.7 mb]
Winds: from the SSE (150 degrees) at 15 MPH (13 knots; 6.8 m/s)
Visibility: 10 or more miles (16+ km)
Ceiling: at least 12,000 feet AGL
Clouds: few clouds at 2300 feet AGL
scattered clouds at 2900 feet AGL
Present Weather:
SOME DATA ABOVE MAY BE INACCURATE!!!
"$" is an indication the sensor requires maintenance
KTTS 292158Z AUTO 15013KT 10SM FEW023 SCT029 27/22 A3013 RMK AO2 SLP207 T02730215 $

Conditions at: KTTS observed 29 April 2017  21:48 UTC
Temperature: 27.0°C (81°F)
Dewpoint: 21.0°C (70°F) [RH = 70%]
Pressure (altimeter): 30.13 inches Hg (1020.4 mb)
[Sea-level pressure: 1020.7 mb]
Winds: from the ESE (120 degrees) at 13 MPH (11 knots; 5.7 m/s)
Visibility: 10 or more miles (16+ km)
Ceiling: at least 12,000 feet AGL
Clouds: scattered clouds at 2300 feet AGL
scattered clouds at 2900 feet AGL
Present Weather:
SOME DATA ABOVE MAY BE INACCURATE!!!
"$" is an indication the sensor requires maintenance
KTTS 292148Z AUTO 12011KT 10SM SCT023 SCT029 27/21 A3013 RMK AO2 SLP207 $

Conditions at: KTTS observed 29 April 2017  21:38 UTC
Temperature: 27.0°C (81°F)
Dewpoint: 21.0°C (70°F) [RH = 70%]
Pressure (altimeter): 30.12 inches Hg (1020.1 mb)
[Sea-level pressure: 1020.4 mb]
Winds: from the ESE (120 degrees) at 14 MPH (12 knots; 6.2 m/s)
gusting to 21 MPH (18 knots; 9.4 m/s)
Visibility: 10 or more miles (16+ km)
Ceiling: 2300 feet AGL
Clouds: broken clouds at 2300 feet AGL
Present Weather:
SOME DATA ABOVE MAY BE INACCURATE!!!
"$" is an indication the sensor requires maintenance
KTTS 292138Z AUTO 12012G18KT 10SM BKN023 27/21 A3012 RMK AO2 CIG 023V032 BKN V SCT SLP204 $

Conditions at: KTTS observed 29 April 2017  21:18 UTC
Temperature: 28.0°C (82°F)
Dewpoint: 21.0°C (70°F) [RH = 66%]
Pressure (altimeter): 30.13 inches Hg (1020.4 mb)
[Sea-level pressure: 1020.7 mb]
Winds: from the SE (130 degrees) at 15 MPH (13 knots; 6.8 m/s)
gusting to 18 MPH (16 knots; 8.3 m/s)
Visibility: 10 or more miles (16+ km)
Ceiling: 3000 feet AGL
Clouds: scattered clouds at 2400 feet AGL
broken clouds at 3000 feet AGL
Present Weather:
SOME DATA ABOVE MAY BE INACCURATE!!!
"$" is an indication the sensor requires maintenance
KTTS 292118Z AUTO 13013G16KT 10SM SCT024 BKN030 28/21 A3013 RMK AO2 CIG 025 RWY15 SLP207 $

Conditions at: KTTS observed 29 April 2017  21:13 UTC
Temperature: 27.0°C (81°F)
Dewpoint: 21.0°C (70°F) [RH = 70%]
Pressure (altimeter): 30.13 inches Hg (1020.4 mb)
[Sea-level pressure: 1020.7 mb]
Winds: from the ESE (120 degrees) at 12 MPH (10 knots; 5.2 m/s)
gusting to 21 MPH (18 knots; 9.4 m/s)
Visibility: 10 or more miles (16+ km)
Ceiling: 2300 feet AGL
Clouds: broken clouds at 2300 feet AGL
Present Weather:
SOME DATA ABOVE MAY BE INACCURATE!!!
"$" is an indication the sensor requires maintenance
KTTS 292113Z AUTO 12010G18KT 10SM BKN023 27/21 A3013 RMK AO2 BKN V SCT SLP207 $

Conditions at: KTTS observed 29 April 2017  21:08 UTC
Temperature: 27.0°C (81°F)
Dewpoint: 21.0°C (70°F) [RH = 70%]
Pressure (altimeter): 30.12 inches Hg (1020.1 mb)
[Sea-level pressure: 1020.4 mb]
Winds: from the SE (130 degrees) at 13 MPH (11 knots; 5.7 m/s)
gusting to 21 MPH (18 knots; 9.4 m/s)
Visibility: 10 or more miles (16+ km)
Ceiling: at least 12,000 feet AGL
Clouds: scattered clouds at 2300 feet AGL
Present Weather:
SOME DATA ABOVE MAY BE INACCURATE!!!
"$" is an indication the sensor requires maintenance
KTTS 292108Z AUTO 13011G18KT 10SM SCT023 27/21 A3012 RMK AO2 SLP204 $

Conditions at: KTTS observed 29 April 2017  21:03 UTC
Temperature: 28.0°C (82°F)
Dewpoint: 21.0°C (70°F) [RH = 66%]
Pressure (altimeter): 30.12 inches Hg (1020.1 mb)
[Sea-level pressure: 1020.4 mb]
Winds: from the SE (130 degrees) at 13 MPH (11 knots; 5.7 m/s)
gusting to 21 MPH (18 knots; 9.4 m/s)
Visibility: 10 or more miles (16+ km)
Ceiling: 2400 feet AGL
Clouds: broken clouds at 2400 feet AGL
Present Weather:
SOME DATA ABOVE MAY BE INACCURATE!!!
"$" is an indication the sensor requires maintenance
KTTS 292103Z AUTO 13011G18KT 10SM BKN024 28/21 A3012 RMK AO2 BKN V SCT SLP204 $

Conditions at: KTTS observed 29 April 2017  20:58 UTC
Temperature: 27.8°C (82°F)
Dewpoint: 21.5°C (71°F) [RH = 69%]
Pressure (altimeter): 30.13 inches Hg (1020.4 mb)
[Sea-level pressure: 1020.7 mb]
Winds: from the ESE (120 degrees) at 14 MPH (12 knots; 6.2 m/s)
gusting to 21 MPH (18 knots; 9.4 m/s)
Visibility: 10 or more miles (16+ km)
Ceiling: at least 12,000 feet AGL
Clouds: scattered clouds at 2400 feet AGL
Present Weather:
SOME DATA ABOVE MAY BE INACCURATE!!!
"$" is an indication the sensor requires maintenance
KTTS 292058Z AUTO 12012G18KT 10SM SCT024 28/22 A3013 RMK AO2 SLP207 T02780215 56012 $

Conditions at: KTTS observed 29 April 2017  20:23 UTC
Temperature: 28.0°C (82°F)
Dewpoint: 21.0°C (70°F) [RH = 66%]
Pressure (altimeter): 30.13 inches Hg (1020.4 mb)
[Sea-level pressure: 1020.7 mb]
Winds: from the SE (130 degrees) at 13 MPH (11 knots; 5.7 m/s)
gusting to 20 MPH (17 knots; 8.8 m/s)
Visibility: 10 or more miles (16+ km)
Ceiling: at least 12,000 feet AGL
Clouds: scattered clouds at 2600 feet AGL
Present Weather:
SOME DATA ABOVE MAY BE INACCURATE!!!
"$" is an indication the sensor requires maintenance
KTTS 292023Z AUTO 13011G17KT 10SM SCT026 28/21 A3013 RMK AO2 SLP207 $

Conditions at: KTTS observed 29 April 2017  20:18 UTC
Temperature: 29.0°C (84°F)
Dewpoint: 21.0°C (70°F) [RH = 62%]
Pressure (altimeter): 30.13 inches Hg (1020.4 mb)
[Sea-level pressure: 1020.7 mb]
Winds: from the SE (140 degrees) at 15 MPH (13 knots; 6.8 m/s)
gusting to 20 MPH (17 knots; 8.8 m/s)
Visibility: 10 or more miles (16+ km)
Ceiling: 2600 feet AGL
Clouds: broken clouds at 2600 feet AGL
Present Weather:
SOME DATA ABOVE MAY BE INACCURATE!!!
"$" is an indication the sensor requires maintenance
KTTS 292018Z AUTO 14013G17KT 10SM BKN026 29/21 A3013 RMK AO2 SLP207 $

Conditions at: KTTS observed 29 April 2017  20:13 UTC
Temperature: 29.0°C (84°F)
Dewpoint: 21.0°C (70°F) [RH = 62%]
Pressure (altimeter): 30.13 inches Hg (1020.4 mb)
[Sea-level pressure: 1020.7 mb]
Winds: from the SE (130 degrees) at 12 MPH (10 knots; 5.2 m/s)
gusting to 21 MPH (18 knots; 9.4 m/s)
Visibility: 10 or more miles (16+ km)
Ceiling: at least 12,000 feet AGL
Clouds: scattered clouds at 2500 feet AGL
Present Weather:
SOME DATA ABOVE MAY BE INACCURATE!!!
"$" is an indication the sensor requires maintenance
KTTS 292013Z AUTO 13010G18KT 10SM SCT025 29/21 A3013 RMK AO2 SLP207 $

Conditions at: KTTS observed 29 April 2017  19:58 UTC
Temperature: 28.3°C (83°F)
Dewpoint: 21.3°C (70°F) [RH = 66%]
Pressure (altimeter): 30.13 inches Hg (1020.4 mb)
[Sea-level pressure: 1020.7 mb]
Winds: from the SE (140 degrees) at 12 MPH (10 knots; 5.2 m/s)
gusting to 21 MPH (18 knots; 9.4 m/s)
Visibility: 10 or more miles (16+ km)
Ceiling: 2500 feet AGL
Clouds: broken clouds at 2500 feet AGL
broken clouds at 3100 feet AGL
Present Weather:
SOME DATA ABOVE MAY BE INACCURATE!!!
"$" is an indication the sensor requires maintenance
KTTS 291958Z AUTO 14010G18KT 10SM BKN025 BKN031 28/21 A3013 RMK AO2 SLP207 T02830213 $

Conditions at: KTTS observed 29 April 2017  19:48 UTC
Temperature: 28.0°C (82°F)
Dewpoint: 21.0°C (70°F) [RH = 66%]
Pressure (altimeter): 30.13 inches Hg (1020.4 mb)
[Sea-level pressure: 1020.7 mb]
Winds: from the SE (140 degrees) at 14 MPH (12 knots; 6.2 m/s)
Visibility: 10 or more miles (16+ km)
Ceiling: 2600 feet AGL
Clouds: broken clouds at 2600 feet AGL
broken clouds at 3100 feet AGL
Present Weather:
SOME DATA ABOVE MAY BE INACCURATE!!!
"$" is an indication the sensor requires maintenance
KTTS 291948Z AUTO 14012KT 10SM BKN026 BKN031 28/21 A3013 RMK AO2 CIG 026V032 BKN026 V SCT SLP207 $

Conditions at: KTTS observed 29 April 2017  18:58 UTC
Temperature: 29.1°C (84°F)
Dewpoint: 21.4°C (71°F) [RH = 63%]
Pressure (altimeter): 30.15 inches Hg (1021.1 mb)
[Sea-level pressure: 1021.4 mb]
Winds: from the SE (130 degrees) at 13 MPH (11 knots; 5.7 m/s)
gusting to 22 MPH (19 knots; 9.9 m/s)
Visibility: 10 or more miles (16+ km)
Ceiling: at least 12,000 feet AGL
Clouds: scattered clouds at 2700 feet AGL
scattered clouds at 15000 feet AGL
scattered clouds at 21000 feet AGL
Present Weather:
SOME DATA ABOVE MAY BE INACCURATE!!!
"$" is an indication the sensor requires maintenance
KTTS 291858Z AUTO 13011G19KT 10SM SCT027 SCT150 SCT210 29/21 A3015 RMK AO2 CIG 150 RWY15 SLP214 T02910214 $

Conditions at: KTTS observed 29 April 2017  18:48 UTC
Temperature: 29.0°C (84°F)
Dewpoint: 21.0°C (70°F) [RH = 62%]
Pressure (altimeter): 30.15 inches Hg (1021.1 mb)
[Sea-level pressure: 1021.4 mb]
Winds: from the ESE (120 degrees) at 13 MPH (11 knots; 5.7 m/s)
gusting to 20 MPH (17 knots; 8.8 m/s)
Visibility: 10 or more miles (16+ km)
Ceiling: 15000 feet AGL
Clouds: scattered clouds at 2700 feet AGL
broken clouds at 15000 feet AGL
broken clouds at 19000 feet AGL
Present Weather:
SOME DATA ABOVE MAY BE INACCURATE!!!
"$" is an indication the sensor requires maintenance
KTTS 291848Z AUTO 12011G17KT 10SM SCT027 BKN150 BKN190 29/21 A3015 RMK AO2 CIG 027 RWY15 SLP214 $

Conditions at: KTTS observed 29 April 2017  18:43 UTC
Temperature: 28.0°C (82°F)
Dewpoint: 21.0°C (70°F) [RH = 66%]
Pressure (altimeter): 30.15 inches Hg (1021.1 mb)
[Sea-level pressure: 1021.4 mb]
Winds: from the SE (130 degrees) at 15 MPH (13 knots; 6.8 m/s)
gusting to 20 MPH (17 knots; 8.8 m/s)
Visibility: 10 or more miles (16+ km)
Ceiling: 2700 feet AGL
Clouds: broken clouds at 2700 feet AGL
broken clouds at 17000 feet AGL
Present Weather:
SOME DATA ABOVE MAY BE INACCURATE!!!
"$" is an indication the sensor requires maintenance
KTTS 291843Z AUTO 13013G17KT 10SM BKN027 BKN170 28/21 A3015 RMK AO2 CIG 027V170 BKN027 V SCT SLP214 $

Conditions at: KTTS observed 29 April 2017  18:33 UTC
Temperature: 28.0°C (82°F)
Dewpoint: 21.0°C (70°F) [RH = 66%]
Pressure (altimeter): 30.16 inches Hg (1021.4 mb)
[Sea-level pressure: 1021.7 mb]
Winds: from the SE (130 degrees) at 13 MPH (11 knots; 5.7 m/s)
gusting to 20 MPH (17 knots; 8.8 m/s)
Visibility: 10 or more miles (16+ km)
Ceiling: 17000 feet AGL
Clouds: scattered clouds at 2600 feet AGL
broken clouds at 17000 feet AGL
Present Weather:
SOME DATA ABOVE MAY BE INACCURATE!!!
"$" is an indication the sensor requires maintenance
KTTS 291833Z AUTO 13011G17KT 10SM SCT026 BKN170 28/21 A3016 RMK AO2 SLP217 $

Conditions at: KTTS observed 29 April 2017  18:28 UTC
Temperature: 28.0°C (82°F)
Dewpoint: 21.0°C (70°F) [RH = 66%]
Pressure (altimeter): 30.15 inches Hg (1021.1 mb)
[Sea-level pressure: 1021.4 mb]
Winds: from the ESE (120 degrees) at 12 MPH (10 knots; 5.2 m/s)
gusting to 20 MPH (17 knots; 8.8 m/s)
Visibility: 10 or more miles (16+ km)
Ceiling: 2600 feet AGL
Clouds: broken clouds at 2600 feet AGL
broken clouds at 17000 feet AGL
Present Weather:
SOME DATA ABOVE MAY BE INACCURATE!!!
"$" is an indication the sensor requires maintenance
KTTS 291828Z AUTO 12010G17KT 10SM BKN026 BKN170 28/21 A3015 RMK AO2 CIG 026V180 BKN026 V SCT SLP214 $

Conditions at: KTTS observed 29 April 2017  17:58 UTC
Temperature: 28.3°C (83°F)
Dewpoint: 21.3°C (70°F) [RH = 66%]
Pressure (altimeter): 30.16 inches Hg (1021.4 mb)
[Sea-level pressure: 1021.7 mb]
Winds: from the SE (130 degrees) at 13 MPH (11 knots; 5.7 m/s)
Visibility: 10 or more miles (16+ km)
Ceiling: 15000 feet AGL
Clouds: scattered clouds at 2500 feet AGL
scattered clouds at 12000 feet AGL
broken clouds at 15000 feet AGL
broken clouds at 18000 feet AGL
Present Weather:
SOME DATA ABOVE MAY BE INACCURATE!!!
"$" is an indication the sensor requires maintenance
KTTS 291758Z AUTO 13011KT 10SM SCT025 SCT120 BKN150 BKN180 28/21 A3016 RMK AO2 CIG 130 RWY15 SLP217 T02830213 10287 20251 58008 $

Conditions at: KTTS observed 29 April 2017  17:28 UTC
Temperature: 28.0°C (82°F)
Dewpoint: 22.0°C (72°F) [RH = 70%]
Pressure (altimeter): 30.16 inches Hg (1021.4 mb)
[Sea-level pressure: 1021.7 mb]
Winds: from the SE (130 degrees) at 14 MPH (12 knots; 6.2 m/s)
Visibility: 10 or more miles (16+ km)
Ceiling: 14000 feet AGL
Clouds: scattered clouds at 2600 feet AGL
broken clouds at 14000 feet AGL
broken clouds at 19000 feet AGL
Present Weather:
SOME DATA ABOVE MAY BE INACCURATE!!!
"$" is an indication the sensor requires maintenance
KTTS 291728Z AUTO 13012KT 10SM SCT026 BKN140 BKN190 28/22 A3016 RMK AO2 CIG 027 RWY15 SLP217 $

Conditions at: KTTS observed 29 April 2017  17:18 UTC
Temperature: 29.0°C (84°F)
Dewpoint: 22.0°C (72°F) [RH = 66%]
Pressure (altimeter): 30.17 inches Hg (1021.8 mb)
[Sea-level pressure: 1022.1 mb]
Winds: from the SE (130 degrees) at 14 MPH (12 knots; 6.2 m/s)
gusting to 21 MPH (18 knots; 9.4 m/s)
Visibility: 10 or more miles (16+ km)
Ceiling: 2700 feet AGL
Clouds: broken clouds at 2700 feet AGL
broken clouds at 15000 feet AGL
broken clouds at 21000 feet AGL
Present Weather:
SOME DATA ABOVE MAY BE INACCURATE!!!
"$" is an indication the sensor requires maintenance
KTTS 291718Z AUTO 13012G18KT 10SM BKN027 BKN150 BKN210 29/22 A3017 RMK AO2 CIG 027V210 SLP221 $

Conditions at: KTTS observed 29 April 2017  17:08 UTC
Temperature: 28.0°C (82°F)
Dewpoint: 21.0°C (70°F) [RH = 66%]
Pressure (altimeter): 30.17 inches Hg (1021.8 mb)
[Sea-level pressure: 1022.1 mb]
Winds: from the ESE (120 degrees) at 15 MPH (13 knots; 6.8 m/s)
gusting to 22 MPH (19 knots; 9.9 m/s)
Visibility: 10 or more miles (16+ km)
Ceiling: 3100 feet AGL
Clouds: scattered clouds at 2500 feet AGL
broken clouds at 3100 feet AGL
broken clouds at 21000 feet AGL
Present Weather:
SOME DATA ABOVE MAY BE INACCURATE!!!
"$" is an indication the sensor requires maintenance
KTTS 291708Z AUTO 12013G19KT 10SM SCT025 BKN031 BKN210 28/21 A3017 RMK AO2 SLP221 $

Conditions at: KTTS observed 29 April 2017  16:58 UTC
Temperature: 28.5°C (83°F)
Dewpoint: 21.7°C (71°F) [RH = 67%]
Pressure (altimeter): 30.17 inches Hg (1021.8 mb)
[Sea-level pressure: 1022.1 mb]
Winds: from the SE (130 degrees) at 14 MPH (12 knots; 6.2 m/s)
Visibility: 10 or more miles (16+ km)
Ceiling: 2600 feet AGL
Clouds: broken clouds at 2600 feet AGL
broken clouds at 16000 feet AGL
Present Weather:
SOME DATA ABOVE MAY BE INACCURATE!!!
"$" is an indication the sensor requires maintenance
KTTS 291658Z AUTO 13012KT 10SM BKN026 BKN160 29/22 A3017 RMK AO2 CIG 026V210 BKN026 V SCT SLP221 T02850217 $

Conditions at: KTTS observed 29 April 2017  16:53 UTC
Temperature: 28.0°C (82°F)
Dewpoint: 22.0°C (72°F) [RH = 70%]
Pressure (altimeter): 30.18 inches Hg (1022.1 mb)
[Sea-level pressure: 1022.4 mb]
Winds: from the SE (130 degrees) at 14 MPH (12 knots; 6.2 m/s)
gusting to 20 MPH (17 knots; 8.8 m/s)
Visibility: 10 or more miles (16+ km)
Ceiling: 21000 feet AGL
Clouds: scattered clouds at 2400 feet AGL
scattered clouds at 2900 feet AGL
broken clouds at 21000 feet AGL
Present Weather:
SOME DATA ABOVE MAY BE INACCURATE!!!
"$" is an indication the sensor requires maintenance
KTTS 291653Z AUTO 13012G17KT 10SM SCT024 SCT029 BKN210 28/22 A3018 RMK AO2 CIG 031 RWY15 SLP224 $

Conditions at: KTTS observed 29 April 2017  16:48 UTC
Temperature: 28.0°C (82°F)
Dewpoint: 22.0°C (72°F) [RH = 70%]
Pressure (altimeter): 30.18 inches Hg (1022.1 mb)
[Sea-level pressure: 1022.4 mb]
Winds: from the SE (130 degrees) at 15 MPH (13 knots; 6.8 m/s)
gusting to 20 MPH (17 knots; 8.8 m/s)
Visibility: 10 or more miles (16+ km)
Ceiling: 3000 feet AGL
Clouds: scattered clouds at 2500 feet AGL
broken clouds at 3000 feet AGL
broken clouds at 15000 feet AGL
Present Weather:
SOME DATA ABOVE MAY BE INACCURATE!!!
"$" is an indication the sensor requires maintenance
KTTS 291648Z AUTO 13013G17KT 10SM SCT025 BKN030 BKN150 28/22 A3018 RMK AO2 SLP224 $

Conditions at: KTTS observed 29 April 2017  16:33 UTC
Temperature: 28.0°C (82°F)
Dewpoint: 22.0°C (72°F) [RH = 70%]
Pressure (altimeter): 30.18 inches Hg (1022.1 mb)
[Sea-level pressure: 1022.4 mb]
Winds: from the SE (130 degrees) at 13 MPH (11 knots; 5.7 m/s)
gusting to 22 MPH (19 knots; 9.9 m/s)
Visibility: 10 or more miles (16+ km)
Ceiling: 2400 feet AGL
Clouds: broken clouds at 2400 feet AGL
broken clouds at 3000 feet AGL
broken clouds at 16000 feet AGL
Present Weather:
SOME DATA ABOVE MAY BE INACCURATE!!!
"$" is an indication the sensor requires maintenance
KTTS 291633Z AUTO 13011G19KT 10SM BKN024 BKN030 BKN160 28/22 A3018 RMK AO2 CIG 024V030 BKN024 V SCT SLP224 $

Conditions at: KTTS observed 29 April 2017  16:28 UTC
Temperature: 28.0°C (82°F)
Dewpoint: 22.0°C (72°F) [RH = 70%]
Pressure (altimeter): 30.18 inches Hg (1022.1 mb)
[Sea-level pressure: 1022.4 mb]
Winds: from the SE (140 degrees) at 15 MPH (13 knots; 6.8 m/s)
gusting to 21 MPH (18 knots; 9.4 m/s)
Visibility: 10 or more miles (16+ km)
Ceiling: 3000 feet AGL
Clouds: scattered clouds at 2400 feet AGL
broken clouds at 3000 feet AGL
Present Weather:
SOME DATA ABOVE MAY BE INACCURATE!!!
"$" is an indication the sensor requires maintenance
KTTS 291628Z AUTO 14013G18KT 10SM SCT024 BKN030 28/22 A3018 RMK AO2 SLP224 $

Conditions at: KTTS observed 29 April 2017  15:58 UTC
Temperature: 27.8°C (82°F)
Dewpoint: 21.7°C (71°F) [RH = 69%]
Pressure (altimeter): 30.19 inches Hg (1022.4 mb)
[Sea-level pressure: 1022.8 mb]
Winds: from the SE (140 degrees) at 14 MPH (12 knots; 6.2 m/s)
gusting to 22 MPH (19 knots; 9.9 m/s)
Visibility: 10 or more miles (16+ km)
Ceiling: 2300 feet AGL
Clouds: broken clouds at 2300 feet AGL
broken clouds at 2800 feet AGL
broken clouds at 3300 feet AGL
Present Weather:
SOME DATA ABOVE MAY BE INACCURATE!!!
"$" is an indication the sensor requires maintenance
KTTS 291558Z AUTO 14012G19KT 10SM BKN023 BKN028 BKN033 28/22 A3019 RMK AO2 SLP228 T02780217 $

Conditions at: KTTS observed 29 April 2017  14:58 UTC
Temperature: 27.1°C (81°F)
Dewpoint: 21.8°C (71°F) [RH = 73%]
Pressure (altimeter): 30.19 inches Hg (1022.4 mb)
[Sea-level pressure: 1022.8 mb]
Winds: from the SE (140 degrees) at 13 MPH (11 knots; 5.7 m/s)
Visibility: 10 or more miles (16+ km)
Ceiling: 2000 feet AGL
Clouds: broken clouds at 2000 feet AGL
Present Weather:
SOME DATA ABOVE MAY BE INACCURATE!!!
"$" is an indication the sensor requires maintenance
KTTS 291458Z AUTO 14011KT 10SM BKN020 27/22 A3019 RMK AO2 SLP228 T02710218 52011 $

Conditions at: KTTS observed 29 April 2017  14:43 UTC
Temperature: 27.0°C (81°F)
Dewpoint: 22.0°C (72°F) [RH = 74%]
Pressure (altimeter): 30.18 inches Hg (1022.1 mb)
[Sea-level pressure: 1022.4 mb]
Winds: from the SSE (150 degrees) at 13 MPH (11 knots; 5.7 m/s)
Visibility: 10 or more miles (16+ km)
Ceiling: 2100 feet AGL
Clouds: broken clouds at 2100 feet AGL
broken clouds at 3000 feet AGL
Present Weather:
SOME DATA ABOVE MAY BE INACCURATE!!!
"$" is an indication the sensor requires maintenance
KTTS 291443Z AUTO 15011KT 10SM BKN021 BKN030 27/22 A3018 RMK AO2 CIG 021V034 BKN021 V SCT SLP224 $

Conditions at: KTTS observed 29 April 2017  14:23 UTC
Temperature: 27.0°C (81°F)
Dewpoint: 22.0°C (72°F) [RH = 74%]
Pressure (altimeter): 30.18 inches Hg (1022.1 mb)
[Sea-level pressure: 1022.4 mb]
Winds: from the SSE (150 degrees) at 15 MPH (13 knots; 6.8 m/s)
Visibility: 10 or more miles (16+ km)
Ceiling: 2700 feet AGL
Clouds: scattered clouds at 2000 feet AGL
broken clouds at 2700 feet AGL
broken clouds at 3500 feet AGL
Present Weather:
SOME DATA ABOVE MAY BE INACCURATE!!!
"$" is an indication the sensor requires maintenance
KTTS 291423Z AUTO 15013KT 10SM SCT020 BKN027 BKN035 27/22 A3018 RMK AO2 CIG 021V035 BKN027 V SCT CIG 021 RWY15 SLP224 $

Conditions at: KTTS observed 29 April 2017  13:58 UTC
Temperature: 26.9°C (80°F)
Dewpoint: 22.0°C (72°F) [RH = 75%]
Pressure (altimeter): 30.17 inches Hg (1021.8 mb)
[Sea-level pressure: 1022.1 mb]
Winds: from the SSE (160 degrees) at 12 MPH (10 knots; 5.2 m/s)
Visibility: 10 or more miles (16+ km)
Ceiling: 2100 feet AGL
Clouds: broken clouds at 2100 feet AGL
broken clouds at 2700 feet AGL
Present Weather:
SOME DATA ABOVE MAY BE INACCURATE!!!
"$" is an indication the sensor requires maintenance
KTTS 291358Z AUTO 16010KT 10SM BKN021 BKN027 27/22 A3017 RMK AO2 SLP221 T02690220 $

Conditions at: KTTS observed 29 April 2017  12:58 UTC
Temperature: 26.1°C (79°F)
Dewpoint: 22.1°C (72°F) [RH = 79%]
Pressure (altimeter): 30.16 inches Hg (1021.4 mb)
[Sea-level pressure: 1021.7 mb]
Winds: from the SSE (150 degrees) at 13 MPH (11 knots; 5.7 m/s)
gusting to 21 MPH (18 knots; 9.4 m/s)
Visibility: 10 or more miles (16+ km)
Ceiling: 1800 feet AGL
Clouds: broken clouds at 1800 feet AGL
Present Weather:
SOME DATA ABOVE MAY BE INACCURATE!!!
"$" is an indication the sensor requires maintenance
KTTS 291258Z AUTO 15011G18KT 10SM BKN018 26/22 A3016 RMK AO2 BKN V SCT SLP217 T02610221 $

Conditions at: KTTS observed 29 April 2017  11:58 UTC
Temperature: 24.9°C (77°F)
Dewpoint: 22.5°C (72°F) [RH = 87%]
Pressure (altimeter): 30.15 inches Hg (1021.1 mb)
[Sea-level pressure: 1021.4 mb]
Winds: from the SSE (150 degrees) at 8 MPH (7 knots; 3.6 m/s)
Visibility: 10 or more miles (16+ km)
Ceiling: at least 12,000 feet AGL
Clouds: sky clear below 12,000 feet AGL
Present Weather:
SOME DATA ABOVE MAY BE INACCURATE!!!
"$" is an indication the sensor requires maintenance
KTTS 291158Z AUTO 15007KT 10SM CLR 25/23 A3015 RMK AO2 SLP214 T02490225 10249 20239 52015 $

Conditions at: KTTS observed 29 April 2017  10:58 UTC
Temperature: 24.0°C (75°F)
Dewpoint: 22.7°C (73°F) [RH = 92%]
Pressure (altimeter): 30.14 inches Hg (1020.7 mb)
[Sea-level pressure: 1021.1 mb]
Winds: from the SE (140 degrees) at 7 MPH (6 knots; 3.1 m/s)
Visibility: 10 or more miles (16+ km)
Ceiling: at least 12,000 feet AGL
Clouds: sky clear below 12,000 feet AGL
Present Weather:
SOME DATA ABOVE MAY BE INACCURATE!!!
"$" is an indication the sensor requires maintenance
KTTS 291058Z AUTO 14006KT 10SM CLR 24/23 A3014 RMK AO2 SLP211 T02400227 $

Conditions at: KTTS observed 29 April 2017  09:58 UTC
Temperature: 24.0°C (75°F)
Dewpoint: 22.8°C (73°F) [RH = 93%]
Pressure (altimeter): 30.12 inches Hg (1020.1 mb)
[Sea-level pressure: 1020.4 mb]
Winds: from the SE (140 degrees) at 8 MPH (7 knots; 3.6 m/s)
Visibility: 10 or more miles (16+ km)
Ceiling: at least 12,000 feet AGL
Clouds: sky clear below 12,000 feet AGL
Present Weather:
SOME DATA ABOVE MAY BE INACCURATE!!!
"$" is an indication the sensor requires maintenance
KTTS 290958Z AUTO 14007KT 10SM CLR 24/23 A3012 RMK AO2 SLP204 T02400228 $

Conditions at: KTTS observed 29 April 2017  08:58 UTC
Temperature: 24.3°C (76°F)
Dewpoint: 23.1°C (74°F) [RH = 93%]
Pressure (altimeter): 30.11 inches Hg (1019.7 mb)
[Sea-level pressure: 1020.0 mb]
Winds: from the SSE (150 degrees) at 7 MPH (6 knots; 3.1 m/s)
Visibility: 10 or more miles (16+ km)
Ceiling: at least 12,000 feet AGL
Clouds: sky clear below 12,000 feet AGL
Present Weather:
SOME DATA ABOVE MAY BE INACCURATE!!!
"$" is an indication the sensor requires maintenance
KTTS 290858Z AUTO 15006KT 10SM CLR 24/23 A3011 RMK AO2 SLP200 T02430231 57005 $

Conditions at: KTTS observed 29 April 2017  07:58 UTC
Temperature: 24.6°C (76°F)
Dewpoint: 23.2°C (74°F) [RH = 92%]
Pressure (altimeter): 30.11 inches Hg (1019.7 mb)
[Sea-level pressure: 1020.0 mb]
Winds: from the SSE (150 degrees) at 7 MPH (6 knots; 3.1 m/s)
Visibility: 10 or more miles (16+ km)
Ceiling: at least 12,000 feet AGL
Clouds: few clouds at 1200 feet AGL
Present Weather:
SOME DATA ABOVE MAY BE INACCURATE!!!
"$" is an indication the sensor requires maintenance
KTTS 290758Z AUTO 15006KT 10SM FEW012 25/23 A3011 RMK AO2 SLP200 T02460232 $

Conditions at: KTTS observed 29 April 2017  06:58 UTC
Temperature: 24.8°C (77°F)
Dewpoint: 23.3°C (74°F) [RH = 91%]
Pressure (altimeter): 30.12 inches Hg (1020.1 mb)
[Sea-level pressure: 1020.4 mb]
Winds: from the SSE (150 degrees) at 9 MPH (8 knots; 4.2 m/s)
Visibility: 10 or more miles (16+ km)
Ceiling: at least 12,000 feet AGL
Clouds: sky clear below 12,000 feet AGL
Present Weather:
SOME DATA ABOVE MAY BE INACCURATE!!!
"$" is an indication the sensor requires maintenance
KTTS 290658Z AUTO 15008KT 10SM CLR 25/23 A3012 RMK AO2 SLP204 T02480233 $

Conditions at: KTTS observed 29 April 2017  05:58 UTC
Temperature: 24.8°C (77°F)
Dewpoint: 23.3°C (74°F) [RH = 91%]
Pressure (altimeter): 30.12 inches Hg (1020.1 mb)
[Sea-level pressure: 1020.4 mb]
Winds: from the SE (140 degrees) at 13 MPH (11 knots; 5.7 m/s)
Visibility: 10 or more miles (16+ km)
Ceiling: at least 12,000 feet AGL
Clouds: sky clear below 12,000 feet AGL
Present Weather:
SOME DATA ABOVE MAY BE INACCURATE!!!
"$" is an indication the sensor requires maintenance
KTTS 290558Z AUTO 14011KT 10SM CLR 25/23 A3012 RMK AO2 SLP204 T02480233 10257 20248 58000 $

Conditions at: KTTS observed 29 April 2017  04:58 UTC
Temperature: 25.0°C (77°F)
Dewpoint: 23.4°C (74°F) [RH = 91%]
Pressure (altimeter): 30.13 inches Hg (1020.4 mb)
[Sea-level pressure: 1020.7 mb]
Winds: from the SSE (150 degrees) at 10 MPH (9 knots; 4.7 m/s)
Visibility: 10 or more miles (16+ km)
Ceiling: at least 12,000 feet AGL
Clouds: sky clear below 12,000 feet AGL
Present Weather:
SOME DATA ABOVE MAY BE INACCURATE!!!
"$" is an indication the sensor requires maintenance
KTTS 290458Z AUTO 15009KT 10SM CLR 25/23 A3013 RMK AO2 SLP207 T02500234 403130236 $

Conditions at: KTTS observed 29 April 2017  03:58 UTC
Temperature: 25.0°C (77°F)
Dewpoint: 23.4°C (74°F) [RH = 91%]
Pressure (altimeter): 30.13 inches Hg (1020.4 mb)
[Sea-level pressure: 1020.7 mb]
Winds: from the SE (140 degrees) at 10 MPH (9 knots; 4.7 m/s)
Visibility: 10 or more miles (16+ km)
Ceiling: at least 12,000 feet AGL
Clouds: sky clear below 12,000 feet AGL
Present Weather:
SOME DATA ABOVE MAY BE INACCURATE!!!
"$" is an indication the sensor requires maintenance
KTTS 290358Z AUTO 14009KT 10SM CLR 25/23 A3013 RMK AO2 SLP207 T02500234 $

Conditions at: KTTS observed 29 April 2017  02:58 UTC
Temperature: 25.0°C (77°F)
Dewpoint: 23.5°C (74°F) [RH = 91%]
Pressure (altimeter): 30.12 inches Hg (1020.1 mb)
[Sea-level pressure: 1020.4 mb]
Winds: from the SSE (150 degrees) at 10 MPH (9 knots; 4.7 m/s)
Visibility: 10 or more miles (16+ km)
Ceiling: at least 12,000 feet AGL
Clouds: sky clear below 12,000 feet AGL
Present Weather:
SOME DATA ABOVE MAY BE INACCURATE!!!
"$" is an indication the sensor requires maintenance
KTTS 290258Z AUTO 15009KT 10SM CLR 25/24 A3012 RMK AO2 SLP204 T02500235 52016 $

Conditions at: KTTS observed 29 April 2017  01:58 UTC
Temperature: 25.0°C (77°F)
Dewpoint: 23.5°C (74°F) [RH = 91%]
Pressure (altimeter): 30.11 inches Hg (1019.7 mb)
[Sea-level pressure: 1020.0 mb]
Winds: from the SSE (150 degrees) at 9 MPH (8 knots; 4.2 m/s)
Visibility: 10 or more miles (16+ km)
Ceiling: at least 12,000 feet AGL
Clouds: sky clear below 12,000 feet AGL
Present Weather:
SOME DATA ABOVE MAY BE INACCURATE!!!
"$" is an indication the sensor requires maintenance
KTTS 290158Z AUTO 15008KT 10SM CLR 25/24 A3011 RMK AO2 SLP200 T02500235 $

Conditions at: KTTS observed 29 April 2017  00:58 UTC
Temperature: 25.2°C (77°F)
Dewpoint: 23.2°C (74°F) [RH = 89%]
Pressure (altimeter): 30.09 inches Hg (1019.0 mb)
[Sea-level pressure: 1019.4 mb]
Winds: from the SSE (150 degrees) at 9 MPH (8 knots; 4.2 m/s)
Visibility: 10 or more miles (16+ km)
Ceiling: at least 12,000 feet AGL
Clouds: sky clear below 12,000 feet AGL
Present Weather:
SOME DATA ABOVE MAY BE INACCURATE!!!
"$" is an indication the sensor requires maintenance
KTTS 290058Z AUTO 15008KT 10SM CLR 25/23 A3009 RMK AO2 SLP194 T02520232 $

Conditions at: KTTS observed 28 April 2017  23:58 UTC
Temperature: 25.9°C (79°F)
Dewpoint: 23.0°C (73°F) [RH = 84%]
Pressure (altimeter): 30.08 inches Hg (1018.7 mb)
[Sea-level pressure: 1019.0 mb]
Winds: from the SSE (150 degrees) at 10 MPH (9 knots; 4.7 m/s)
Visibility: 10 or more miles (16+ km)
Ceiling: at least 12,000 feet AGL
Clouds: sky clear below 12,000 feet AGL
Present Weather:
SOME DATA ABOVE MAY BE INACCURATE!!!
"$" is an indication the sensor requires maintenance
KTTS 282358Z AUTO 15009KT 10SM CLR 26/23 A3008 RMK AO2 SLP190 T02590230 10313 20259 53004 $

Conditions at: KTTS observed 28 April 2017  22:58 UTC
Temperature: 27.5°C (82°F)
Dewpoint: 22.6°C (73°F) [RH = 75%]
Pressure (altimeter): 30.07 inches Hg (1018.4 mb)
[Sea-level pressure: 1018.7 mb]
Winds: from the SSE (150 degrees) at 14 MPH (12 knots; 6.2 m/s)
Visibility: 10 or more miles (16+ km)
Ceiling: at least 12,000 feet AGL
Clouds: few clouds at 1800 feet AGL
Present Weather:
SOME DATA ABOVE MAY BE INACCURATE!!!
"$" is an indication the sensor requires maintenance
KTTS 282258Z AUTO 15012KT 10SM FEW018 28/23 A3007 RMK AO2 SLP187 T02750226 $

Conditions at: KTTS observed 28 April 2017  21:58 UTC
Temperature: 28.8°C (84°F)
Dewpoint: 22.0°C (72°F) [RH = 67%]
Pressure (altimeter): 30.06 inches Hg (1018.0 mb)
[Sea-level pressure: 1018.4 mb]
Winds: from the SSE (160 degrees) at 16 MPH (14 knots; 7.3 m/s)
gusting to 21 MPH (18 knots; 9.4 m/s)
Visibility: 10 or more miles (16+ km)
Ceiling: at least 12,000 feet AGL
Clouds: sky clear below 12,000 feet AGL
Present Weather:
SOME DATA ABOVE MAY BE INACCURATE!!!
"$" is an indication the sensor requires maintenance
KTTS 282158Z AUTO 16014G18KT 10SM CLR 29/22 A3006 RMK AO2 SLP184 T02880220 $

Conditions at: KTTS observed 28 April 2017  20:58 UTC
Temperature: 29.5°C (85°F)
Dewpoint: 22.6°C (73°F) [RH = 67%]
Pressure (altimeter): 30.07 inches Hg (1018.4 mb)
[Sea-level pressure: 1018.7 mb]
Winds: from the SSE (150 degrees) at 13 MPH (11 knots; 5.7 m/s)
Visibility: 10 or more miles (16+ km)
Ceiling: at least 12,000 feet AGL
Clouds: few clouds at 2300 feet AGL
Present Weather:
SOME DATA ABOVE MAY BE INACCURATE!!!
"$" is an indication the sensor requires maintenance
KTTS 282058Z AUTO 15011KT 10SM FEW023 30/23 A3007 RMK AO2 SLP187 T02950226 57007 $

Conditions at: KTTS observed 28 April 2017  19:58 UTC
Temperature: 29.5°C (85°F)
Dewpoint: 22.6°C (73°F) [RH = 67%]
Pressure (altimeter): 30.07 inches Hg (1018.4 mb)
[Sea-level pressure: 1018.7 mb]
Winds: from the SE (140 degrees) at 14 MPH (12 knots; 6.2 m/s)
gusting to 22 MPH (19 knots; 9.9 m/s)
Visibility: 10 or more miles (16+ km)
Ceiling: at least 12,000 feet AGL
Clouds: sky clear below 12,000 feet AGL
Present Weather:
SOME DATA ABOVE MAY BE INACCURATE!!!
"$" is an indication the sensor requires maintenance
KTTS 281958Z AUTO 14012G19KT 10SM CLR 30/23 A3007 RMK AO2 SLP187 T02950226 $

Conditions at: KTTS observed 28 April 2017  18:58 UTC
Temperature: 30.8°C (87°F)
Dewpoint: 22.9°C (73°F) [RH = 63%]
Pressure (altimeter): 30.08 inches Hg (1018.7 mb)
[Sea-level pressure: 1019.0 mb]
Winds: from the ESE (120 degrees) at 12 MPH (10 knots; 5.2 m/s)
Visibility: 10 or more miles (16+ km)
Ceiling: at least 12,000 feet AGL
Clouds: sky clear below 12,000 feet AGL
Present Weather:
SOME DATA ABOVE MAY BE INACCURATE!!!
"$" is an indication the sensor requires maintenance
KTTS 281858Z AUTO 12010KT 10SM CLR 31/23 A3008 RMK AO2 SLP190 T03080229 $

Conditions at: KTTS observed 28 April 2017  17:58 UTC
Temperature: 30.8°C (87°F)
Dewpoint: 22.1°C (72°F) [RH = 60%]
Pressure (altimeter): 30.09 inches Hg (1019.0 mb)
[Sea-level pressure: 1019.4 mb]
Winds: from the SSE (150 degrees) at 14 MPH (12 knots; 6.2 m/s)
gusting to 20 MPH (17 knots; 8.8 m/s)
Visibility: 10 or more miles (16+ km)
Ceiling: at least 12,000 feet AGL
Clouds: few clouds at 22000 feet AGL
Present Weather:
SOME DATA ABOVE MAY BE INACCURATE!!!
"$" is an indication the sensor requires maintenance
KTTS 281758Z AUTO 15012G17KT 10SM FEW220 31/22 A3009 RMK AO2 SLP194 T03080221 10310 20246 57003 $

Conditions at: KTTS observed 28 April 2017  16:58 UTC
Temperature: 30.6°C (87°F)
Dewpoint: 22.9°C (73°F) [RH = 64%]
Pressure (altimeter): 30.09 inches Hg (1019.0 mb)
[Sea-level pressure: 1019.4 mb]
Winds: from the S (170 degrees) at 14 MPH (12 knots; 6.2 m/s)
gusting to 20 MPH (17 knots; 8.8 m/s)
Visibility: 10 or more miles (16+ km)
Ceiling: at least 12,000 feet AGL
Clouds: scattered clouds at 2600 feet AGL
Present Weather:
SOME DATA ABOVE MAY BE INACCURATE!!!
"$" is an indication the sensor requires maintenance
KTTS 281658Z AUTO 17012G17KT 10SM SCT026 31/23 A3009 RMK AO2 SLP194 T03060229 $

Conditions at: KTTS observed 28 April 2017  15:58 UTC
Temperature: 30.6°C (87°F)
Dewpoint: 23.4°C (74°F) [RH = 66%]
Pressure (altimeter): 30.09 inches Hg (1019.0 mb)
[Sea-level pressure: 1019.4 mb]
Winds: from the SSE (160 degrees) at 13 MPH (11 knots; 5.7 m/s)
Visibility: 10 or more miles (16+ km)
Ceiling: at least 12,000 feet AGL
Clouds: few clouds at 2500 feet AGL
Present Weather:
SOME DATA ABOVE MAY BE INACCURATE!!!
"$" is an indication the sensor requires maintenance
KTTS 281558Z AUTO 16011KT 10SM FEW025 31/23 A3009 RMK AO2 SLP194 T03060234 $